ěÝzenÝ letovÚho provozu ╚eskÚ republiky
Letiste: LKMT Aktualizace: 25.01.2022 11:57:28  UTC
 SPECI LKMT 25.01. 11:56 ...
SPECI LKMT 251156Z 23009KT 1600 SN BR FEW010 OVC020 01/M00 Q1028 RMK REG QNH 1027=
 TAF LKMT 25.01. 11:00 ...
TAF LKMT 251100Z 2512/2618 23010KT 5000 BR BKN025      TEMPO 2512/2520 2500 -SN BR BKN016      TEMPO 2520/2611 2500 -SN BR SCT005 OVC007      PROB30 TEMPO 2523/2609 1700 -SN BR OVC005=
 WARNING LKMT 25.01. 10:08 ...
LKMT AD WRNG 3 VALID 251010/251500 SN LESS THAN 1CM FCST NC=